createdAt,value
2018-07-27T00:00:54.699Z,10.13
2018-07-27T00:03:22.919Z,9.23
2018-07-27T00:05:51.115Z,10.47
2018-07-27T00:08:19.845Z,9.90
2018-07-27T00:10:47.788Z,10.83
2018-07-27T00:13:16.022Z,8.87
2018-07-27T00:15:44.202Z,10.03
2018-07-27T00:18:12.383Z,9.87
2018-07-27T00:20:40.555Z,9.80
2018-07-27T00:23:08.760Z,10.43
2018-07-27T00:25:36.940Z,9.80
2018-07-27T00:28:05.250Z,10.00
2018-07-27T00:30:33.439Z,10.63
2018-07-27T00:33:01.621Z,11.37
2018-07-27T00:35:30.100Z,10.60
2018-07-27T00:37:58.306Z,10.23
2018-07-27T00:40:26.476Z,10.00
2018-07-27T00:42:54.708Z,9.40
2018-07-27T00:45:22.904Z,9.90
2018-07-27T00:47:51.092Z,9.33
2018-07-27T00:50:19.808Z,9.13
2018-07-27T00:52:47.735Z,9.80
2018-07-27T00:55:15.936Z,10.07
2018-07-27T00:57:44.095Z,8.90
2018-07-27T01:00:12.289Z,7.97
2018-07-27T01:02:40.471Z,9.03
2018-07-27T01:05:08.449Z,9.40
2018-07-27T01:07:36.626Z,9.23
2018-07-27T01:10:04.583Z,9.07
2018-07-27T01:12:32.768Z,9.27
2018-07-27T01:15:00.750Z,8.17
2018-07-27T01:17:28.952Z,8.27
2018-07-27T01:19:57.127Z,8.90
2018-07-27T01:22:25.380Z,8.30
2018-07-27T01:24:53.804Z,7.90
2018-07-27T01:27:22.027Z,8.37
2018-07-27T01:29:50.211Z,7.83
2018-07-27T01:32:18.395Z,8.10
2018-07-27T01:34:46.664Z,7.93
2018-07-27T01:37:14.847Z,7.63
2018-07-27T01:39:43.039Z,7.03
2018-07-27T01:42:11.225Z,6.93
2018-07-27T01:44:39.471Z,6.90
2018-07-27T01:47:07.659Z,7.17
2018-07-27T01:49:35.848Z,6.67
2018-07-27T01:52:04.028Z,6.80
2018-07-27T01:54:32.208Z,6.50
2018-07-27T01:57:00.369Z,5.77
2018-07-27T01:59:28.539Z,6.07
2018-07-27T02:01:56.728Z,5.47
2018-07-27T02:04:24.676Z,6.07
2018-07-27T02:06:52.914Z,5.13
2018-07-27T02:09:21.671Z,5.20
2018-07-27T02:11:49.610Z,5.37
2018-07-27T02:14:17.838Z,5.90
2018-07-27T02:16:46.048Z,4.90
2018-07-27T02:19:14.233Z,5.17
2018-07-27T02:21:42.408Z,5.67
2018-07-27T02:24:10.600Z,5.47
2018-07-27T02:26:38.570Z,5.20
2018-07-27T02:29:06.519Z,6.43
2018-07-27T02:31:34.711Z,5.10
2018-07-27T02:34:02.892Z,5.00
2018-07-27T02:36:31.088Z,5.47
2018-07-27T02:38:59.266Z,5.07
2018-07-27T02:41:27.448Z,5.70
2018-07-27T02:43:55.800Z,4.60
2018-07-27T02:46:23.966Z,5.70
2018-07-27T02:48:52.135Z,5.07
2018-07-27T02:51:20.184Z,4.90
2018-07-27T02:53:48.319Z,5.63
2018-07-27T02:56:16.499Z,5.03
2018-07-27T02:58:44.672Z,5.00
2018-07-27T03:01:12.855Z,5.23
2018-07-27T03:03:41.041Z,6.60
2018-07-27T03:06:09.264Z,5.90
2018-07-27T03:08:37.471Z,6.17
2018-07-27T03:11:05.652Z,5.37
2018-07-27T03:13:33.848Z,6.43
2018-07-27T03:16:02.029Z,6.17
2018-07-27T03:18:30.037Z,5.70
2018-07-27T03:20:58.214Z,5.00
2018-07-27T03:23:26.376Z,6.20
2018-07-27T03:25:54.567Z,5.40
2018-07-27T03:28:22.742Z,5.57
2018-07-27T03:30:50.920Z,5.57
2018-07-27T03:33:19.128Z,5.80
2018-07-27T03:35:47.301Z,5.93
2018-07-27T03:38:15.534Z,6.90
2018-07-27T03:40:43.677Z,6.00
2018-07-27T03:43:11.618Z,5.80
2018-07-27T03:45:39.815Z,6.40
2018-07-27T03:48:09.155Z,6.13
2018-07-27T03:50:38.820Z,6.23
2018-07-27T03:53:07.303Z,5.60
2018-07-27T03:55:35.300Z,5.60
2018-07-27T03:58:03.484Z,5.30
2018-07-27T04:00:31.676Z,5.70
2018-07-27T04:02:59.859Z,5.27
2018-07-27T04:05:28.603Z,5.40
2018-07-27T04:07:56.890Z,5.60
2018-07-27T04:10:25.199Z,5.80
2018-07-27T04:12:53.379Z,5.17
2018-07-27T04:15:21.568Z,5.30
2018-07-27T04:17:57.008Z,5.00
2018-07-27T04:20:25.338Z,5.17
2018-07-27T04:22:53.627Z,4.30
2018-07-27T04:25:21.815Z,5.27
2018-07-27T04:27:50.242Z,5.10
2018-07-27T04:30:18.623Z,4.90
2018-07-27T04:32:46.990Z,4.90
2018-07-27T04:35:14.993Z,4.70
2018-07-27T04:37:43.196Z,4.73
2018-07-27T04:40:11.421Z,5.03
2018-07-27T04:42:39.795Z,4.67
2018-07-27T04:45:07.998Z,5.10
2018-07-27T04:47:36.190Z,4.23
2018-07-27T04:50:04.527Z,4.60
2018-07-27T04:52:32.687Z,5.30
2018-07-27T04:55:00.664Z,4.60
2018-07-27T04:57:28.883Z,4.13
2018-07-27T04:59:57.083Z,4.83
2018-07-27T05:02:25.406Z,4.60
2018-07-27T05:04:53.599Z,4.83
2018-07-27T05:07:21.825Z,4.97
2018-07-27T05:09:49.943Z,4.67
2018-07-27T05:12:18.103Z,4.47
2018-07-27T05:14:46.275Z,4.47
2018-07-27T05:17:14.450Z,5.17
2018-07-27T05:19:42.623Z,4.57
2018-07-27T05:22:10.804Z,5.43
2018-07-27T05:24:38.996Z,4.70
2018-07-27T05:27:07.215Z,3.90
2018-07-27T05:29:35.415Z,4.10
2018-07-27T05:32:03.616Z,4.03
2018-07-27T05:34:31.811Z,5.03
2018-07-27T05:37:00.009Z,4.50
2018-07-27T05:39:27.939Z,4.27
2018-07-27T05:41:56.151Z,4.47
2018-07-27T05:44:24.340Z,4.87
2018-07-27T05:46:52.563Z,4.20
2018-07-27T05:49:20.706Z,4.80
2018-07-27T05:51:48.908Z,3.90
2018-07-27T05:54:17.101Z,5.00
2018-07-27T05:56:45.296Z,4.40
2018-07-27T05:59:13.215Z,4.00
2018-07-27T06:01:41.408Z,3.90
2018-07-27T06:04:09.598Z,4.63
2018-07-27T06:06:37.536Z,4.40
2018-07-27T06:09:07.763Z,4.03
2018-07-27T06:11:35.959Z,4.53
2018-07-27T06:14:03.907Z,4.33
2018-07-27T06:16:32.100Z,5.10
2018-07-27T06:19:00.287Z,5.17
2018-07-27T06:21:28.229Z,4.83
2018-07-27T06:23:56.523Z,4.30
2018-07-27T06:26:24.355Z,5.00
2018-07-27T06:28:52.528Z,3.97
2018-07-27T06:31:21.326Z,4.77
2018-07-27T06:33:49.524Z,4.50
2018-07-27T06:36:17.475Z,4.80
2018-07-27T06:38:45.651Z,4.17
2018-07-27T06:41:13.828Z,4.43
2018-07-27T06:43:42.015Z,4.43
2018-07-27T06:46:09.952Z,4.07
2018-07-27T06:48:38.117Z,4.80
2018-07-27T06:51:06.324Z,4.27
2018-07-27T06:53:34.251Z,4.87
2018-07-27T06:56:02.442Z,4.53
2018-07-27T06:58:30.633Z,4.47
2018-07-27T07:00:58.815Z,3.80
2018-07-27T07:03:26.798Z,4.40
2018-07-27T07:05:54.956Z,4.83
2018-07-27T07:08:22.947Z,5.00
2018-07-27T07:10:51.113Z,5.23
2018-07-27T07:13:19.312Z,4.63
2018-07-27T07:15:47.483Z,3.63
2018-07-27T07:18:15.649Z,4.53
2018-07-27T07:20:43.819Z,4.30
2018-07-27T07:23:12.009Z,4.33
2018-07-27T07:25:40.376Z,4.70
2018-07-27T07:28:08.380Z,4.20
2018-07-27T07:30:36.548Z,4.00
2018-07-27T07:33:04.756Z,4.53
2018-07-27T07:35:32.899Z,5.03
2018-07-27T07:38:01.066Z,4.10
2018-07-27T07:40:29.268Z,4.20
2018-07-27T07:42:57.447Z,5.40
2018-07-27T07:45:25.619Z,4.33
2018-07-27T07:47:53.782Z,4.47
2018-07-27T07:50:21.976Z,4.70
2018-07-27T07:52:49.895Z,4.97
2018-07-27T07:55:18.084Z,4.13
2018-07-27T07:57:46.279Z,4.33
2018-07-27T08:00:14.460Z,4.93
2018-07-27T08:02:42.388Z,4.70
2018-07-27T08:05:10.594Z,4.83
2018-07-27T08:07:38.764Z,4.63
2018-07-27T08:10:06.944Z,5.20
2018-07-27T08:12:35.123Z,4.53
2018-07-27T08:15:03.103Z,4.63
2018-07-27T08:17:31.043Z,4.67
2018-07-27T08:19:59.224Z,4.63
2018-07-27T08:22:27.460Z,4.60
2018-07-27T08:24:55.639Z,4.23
2018-07-27T08:27:23.898Z,4.33
2018-07-27T08:29:52.076Z,4.30
2018-07-27T08:32:20.266Z,4.60
2018-07-27T08:34:48.443Z,4.10
2018-07-27T08:37:16.619Z,4.80
2018-07-27T08:39:44.800Z,5.43
2018-07-27T08:42:12.999Z,4.27
2018-07-27T08:44:41.741Z,4.40
2018-07-27T08:47:09.931Z,4.30
2018-07-27T08:49:38.107Z,5.10
2018-07-27T08:52:06.308Z,4.70
2018-07-27T08:54:34.267Z,4.60
2018-07-27T08:57:02.508Z,4.90
2018-07-27T08:59:30.692Z,4.43
2018-07-27T09:01:58.863Z,4.07
2018-07-27T09:04:28.138Z,4.47
2018-07-27T09:06:56.656Z,4.57
2018-07-27T09:09:24.841Z,4.93
2018-07-27T09:11:53.016Z,3.43
2018-07-27T09:14:21.219Z,4.50
2018-07-27T09:16:49.415Z,4.80
2018-07-27T09:19:17.617Z,4.17
2018-07-27T09:21:45.792Z,5.00
2018-07-27T09:24:14.024Z,4.90
2018-07-27T09:26:42.164Z,4.40
2018-07-27T09:29:10.360Z,5.40
2018-07-27T09:31:38.555Z,3.83
2018-07-27T09:34:06.800Z,4.40
2018-07-27T09:36:34.939Z,4.90
2018-07-27T09:39:03.277Z,4.90
2018-07-27T09:41:31.479Z,4.20
2018-07-27T09:43:59.642Z,3.97
2018-07-27T09:46:27.915Z,3.97
2018-07-27T09:48:55.803Z,4.43
2018-07-27T09:51:24.827Z,5.10
2018-07-27T09:53:52.790Z,3.77
2018-07-27T09:56:21.024Z,4.33
2018-07-27T09:58:49.194Z,4.27
2018-07-27T10:01:24.735Z,4.40
2018-07-27T10:03:53.791Z,4.43
2018-07-27T10:06:21.726Z,3.90
2018-07-27T10:08:49.907Z,4.43
2018-07-27T10:11:18.103Z,4.00
2018-07-27T10:13:46.049Z,3.87
2018-07-27T10:16:14.221Z,4.60
2018-07-27T10:18:42.379Z,4.30
2018-07-27T10:21:10.570Z,4.23
2018-07-27T10:23:38.795Z,4.33
2018-07-27T10:26:06.989Z,4.37
2018-07-27T10:28:35.171Z,4.60
2018-07-27T10:31:03.340Z,5.20
2018-07-27T10:33:31.522Z,4.40
2018-07-27T10:35:59.695Z,4.90
2018-07-27T10:38:28.028Z,4.37
2018-07-27T10:40:56.167Z,4.30
2018-07-27T10:43:24.091Z,4.17
2018-07-27T10:45:52.379Z,4.80
2018-07-27T10:48:20.551Z,4.80
2018-07-27T10:50:48.752Z,4.10
2018-07-27T10:53:16.939Z,3.70
2018-07-27T10:55:44.876Z,3.93
2018-07-27T10:58:13.055Z,4.00
2018-07-27T11:00:41.228Z,3.90
2018-07-27T11:03:09.417Z,3.60
2018-07-27T11:05:37.583Z,4.20
2018-07-27T11:08:05.808Z,3.90
2018-07-27T11:10:33.999Z,4.23
2018-07-27T11:13:02.175Z,3.73
2018-07-27T11:15:30.358Z,3.83
2018-07-27T11:17:58.548Z,3.70
2018-07-27T11:20:26.748Z,3.27
2018-07-27T11:22:54.952Z,3.90
2018-07-27T11:25:23.156Z,3.50
2018-07-27T11:27:51.348Z,3.77
2018-07-27T11:30:19.543Z,3.97
2018-07-27T11:32:47.745Z,4.13
2018-07-27T11:35:15.921Z,3.33
2018-07-27T11:37:44.097Z,3.43
2018-07-27T11:40:12.371Z,3.43
2018-07-27T11:42:40.579Z,4.37
2018-07-27T11:45:08.764Z,3.73
2018-07-27T11:47:36.971Z,4.10
2018-07-27T11:50:05.157Z,3.90
2018-07-27T11:52:33.321Z,4.40
2018-07-27T11:55:01.513Z,3.30
2018-07-27T11:57:29.681Z,3.43
2018-07-27T11:59:57.864Z,3.20
2018-07-27T12:02:26.036Z,3.47
2018-07-27T12:04:54.223Z,4.50
2018-07-27T12:07:22.450Z,3.90
2018-07-27T12:09:50.425Z,3.40
2018-07-27T12:12:18.627Z,3.60
2018-07-27T12:14:46.970Z,3.43
2018-07-27T12:17:15.009Z,3.00
2018-07-27T12:19:43.225Z,3.40
2018-07-27T12:22:11.413Z,2.83
2018-07-27T12:24:39.611Z,2.87
2018-07-27T12:27:07.849Z,3.70
2018-07-27T12:29:35.968Z,3.07
2018-07-27T12:32:04.127Z,3.33
2018-07-27T12:34:32.321Z,2.83
2018-07-27T12:37:00.493Z,3.30
2018-07-27T12:39:28.676Z,3.50
2018-07-27T12:41:56.847Z,3.47
2018-07-27T12:44:25.050Z,3.50
2018-07-27T12:46:53.232Z,3.87
2018-07-27T12:49:21.422Z,3.60
2018-07-27T12:51:49.623Z,3.30
2018-07-27T12:54:17.828Z,3.40
2018-07-27T12:56:45.775Z,3.70
2018-07-27T12:59:13.951Z,2.87
2018-07-27T13:01:42.136Z,2.80
2018-07-27T13:04:10.329Z,2.60
2018-07-27T13:06:38.259Z,2.80
2018-07-27T13:09:07.409Z,2.77
2018-07-27T13:11:35.597Z,2.53
2018-07-27T13:14:04.012Z,2.67
2018-07-27T13:16:32.235Z,3.60
2018-07-27T13:19:00.413Z,2.80
2018-07-27T13:21:28.642Z,3.10
2018-07-27T13:23:59.109Z,2.70
2018-07-27T13:26:27.336Z,2.70
2018-07-27T13:28:55.555Z,3.00
2018-07-27T13:31:58.124Z,2.50
2018-07-27T13:34:36.121Z,2.20
2018-07-27T13:37:04.710Z,2.40
2018-07-27T13:39:33.362Z,2.43
2018-07-27T13:42:02.715Z,2.47
2018-07-27T13:44:32.097Z,2.47
2018-07-27T13:47:00.303Z,2.60
2018-07-27T13:49:28.969Z,2.73
2018-07-27T13:52:00.691Z,2.80
2018-07-27T13:54:29.858Z,2.73
2018-07-27T13:56:58.051Z,3.00
2018-07-27T13:59:26.255Z,2.50
2018-07-27T14:01:54.461Z,2.57
2018-07-27T14:04:22.661Z,2.23
2018-07-27T14:06:52.107Z,2.63
2018-07-27T14:09:20.082Z,2.63
2018-07-27T14:11:48.285Z,2.80
2018-07-27T14:14:16.492Z,3.20
2018-07-27T14:16:44.651Z,3.27
2018-07-27T14:19:13.704Z,2.73
2018-07-27T14:21:42.174Z,2.80
2018-07-27T14:24:10.387Z,3.00
2018-07-27T14:26:38.735Z,3.20
2018-07-27T14:29:06.977Z,2.63
2018-07-27T14:31:35.124Z,2.77
2018-07-27T14:34:03.324Z,2.27
2018-07-27T14:36:31.545Z,2.70
2018-07-27T14:38:59.756Z,2.40
2018-07-27T14:41:27.951Z,2.47
2018-07-27T14:43:55.886Z,2.53
2018-07-27T14:46:24.075Z,2.50
2018-07-27T14:48:52.270Z,2.37
2018-07-27T14:51:20.198Z,2.50
2018-07-27T14:53:48.396Z,2.00
2018-07-27T14:56:16.568Z,2.50
2018-07-27T14:58:44.821Z,2.50
2018-07-27T15:01:12.985Z,2.57
2018-07-27T15:03:41.184Z,2.80
2018-07-27T15:06:09.386Z,2.80
2018-07-27T15:08:37.320Z,2.87
2018-07-27T15:11:05.492Z,3.20
2018-07-27T15:13:33.658Z,3.60
2018-07-27T15:16:01.890Z,3.47
2018-07-27T15:18:30.101Z,2.77
2018-07-27T15:20:58.283Z,3.20
2018-07-27T15:23:26.463Z,2.87
2018-07-27T15:25:54.652Z,2.80
2018-07-27T15:28:22.872Z,3.03
2018-07-27T15:30:51.984Z,3.10
2018-07-27T15:33:20.211Z,3.77
2018-07-27T15:35:48.167Z,3.10
2018-07-27T15:38:16.608Z,3.23
2018-07-27T15:40:44.793Z,3.70
2018-07-27T15:43:12.976Z,3.53
2018-07-27T15:45:41.152Z,3.93
2018-07-27T15:48:09.341Z,3.73
2018-07-27T15:50:37.511Z,3.23
2018-07-27T15:53:05.697Z,3.20
2018-07-27T15:55:33.694Z,3.40
2018-07-27T15:58:02.010Z,3.27
2018-07-27T16:00:30.171Z,3.33
2018-07-27T16:02:58.454Z,3.53
2018-07-27T16:05:26.674Z,3.60
2018-07-27T16:07:54.609Z,3.43
2018-07-27T16:10:22.763Z,3.07
2018-07-27T16:12:50.938Z,4.10
2018-07-27T16:15:19.183Z,4.63
2018-07-27T16:17:47.408Z,4.57
2018-07-27T16:20:15.615Z,4.63
2018-07-27T16:22:43.773Z,3.40
2018-07-27T16:25:11.982Z,4.60
2018-07-27T16:27:40.163Z,4.90
2018-07-27T16:30:08.358Z,7.93
2018-07-27T16:32:36.544Z,7.07
2018-07-27T16:35:04.802Z,5.93
2018-07-27T16:37:32.983Z,5.27
2018-07-27T16:40:01.233Z,4.80
2018-07-27T16:42:29.360Z,4.30
2018-07-27T16:44:57.556Z,4.07
2018-07-27T16:47:25.733Z,4.17
2018-07-27T16:49:53.908Z,4.20
2018-07-27T16:52:22.104Z,4.40
2018-07-27T16:54:50.300Z,4.47
2018-07-27T16:57:18.512Z,4.47
2018-07-27T16:59:46.512Z,5.10
2018-07-27T17:02:14.684Z,5.20
2018-07-27T17:04:42.877Z,5.20
2018-07-27T17:07:11.043Z,4.60
2018-07-27T17:09:39.239Z,4.90
2018-07-27T17:12:07.407Z,3.90
2018-07-27T17:14:35.651Z,3.60
2018-07-27T17:17:03.858Z,4.67
2018-07-27T17:19:32.081Z,4.00
2018-07-27T17:22:00.323Z,5.27
2018-07-27T17:24:28.510Z,5.10
2018-07-27T17:26:56.711Z,6.30
2018-07-27T17:29:24.862Z,6.63
2018-07-27T17:31:53.060Z,6.70
2018-07-27T17:34:21.280Z,5.40
2018-07-27T17:36:49.436Z,5.50
2018-07-27T17:39:17.603Z,4.73
2018-07-27T17:41:45.769Z,5.20
2018-07-27T17:44:13.940Z,4.33
2018-07-27T17:46:42.108Z,4.50
2018-07-27T17:49:10.307Z,4.37
2018-07-27T17:51:38.771Z,3.97
2018-07-27T17:54:07.712Z,3.97
2018-07-27T17:56:35.911Z,4.00
2018-07-27T17:59:04.377Z,4.50
2018-07-27T18:01:32.584Z,3.60
2018-07-27T18:04:00.768Z,3.63
2018-07-27T18:06:29.129Z,3.77
2018-07-27T18:08:57.295Z,3.70
2018-07-27T18:11:25.484Z,3.40
2018-07-27T18:13:53.679Z,4.00
2018-07-27T18:16:21.864Z,3.50
2018-07-27T18:18:50.044Z,3.80
2018-07-27T18:21:18.214Z,3.47
2018-07-27T18:23:46.412Z,3.20
2018-07-27T18:26:14.584Z,2.97
2018-07-27T18:28:42.752Z,3.00
2018-07-27T18:31:10.927Z,3.30
2018-07-27T18:33:39.096Z,3.47
2018-07-27T18:36:07.400Z,3.50
2018-07-27T18:38:35.630Z,4.27
2018-07-27T18:41:03.796Z,3.40
2018-07-27T18:43:31.967Z,3.27
2018-07-27T18:46:00.168Z,3.40
2018-07-27T18:48:28.341Z,3.80
2018-07-27T18:50:56.519Z,3.20
2018-07-27T18:53:24.728Z,2.90
2018-07-27T18:55:52.930Z,3.43
2018-07-27T18:58:21.132Z,2.90
2018-07-27T19:00:49.335Z,2.97
2018-07-27T19:03:17.508Z,3.43
2018-07-27T19:05:45.686Z,3.17
2018-07-27T19:08:13.862Z,2.50
2018-07-27T19:10:42.031Z,3.77
2018-07-27T19:13:10.224Z,2.60
2018-07-27T19:15:38.409Z,3.60
2018-07-27T19:18:06.611Z,3.03
2018-07-27T19:20:34.808Z,2.33
2018-07-27T19:23:02.984Z,3.63
2018-07-27T19:25:31.164Z,2.87
2018-07-27T19:27:59.335Z,3.30
2018-07-27T19:30:27.525Z,3.60
2018-07-27T19:32:55.712Z,3.70
2018-07-27T19:35:23.907Z,2.50
2018-07-27T19:37:52.100Z,2.90
2018-07-27T19:40:20.869Z,2.93
2018-07-27T19:42:49.044Z,3.40
2018-07-27T19:45:17.222Z,3.10
2018-07-27T19:47:45.379Z,3.07
2018-07-27T19:50:13.571Z,3.07
2018-07-27T19:52:41.780Z,3.13
2018-07-27T19:55:09.710Z,3.67
2018-07-27T19:57:37.914Z,3.23
2018-07-27T20:00:06.339Z,3.27
2018-07-27T20:02:34.538Z,3.90
2018-07-27T20:05:02.724Z,3.00
2018-07-27T20:07:30.891Z,3.03
2018-07-27T20:09:59.084Z,3.23
2018-07-27T20:12:27.038Z,3.00
2018-07-27T20:14:55.240Z,3.43
2018-07-27T20:17:23.220Z,3.40
2018-07-27T20:19:51.508Z,3.27
2018-07-27T20:22:19.683Z,3.13
2018-07-27T20:24:47.863Z,3.03
2018-07-27T20:27:16.064Z,3.10
2018-07-27T20:29:44.244Z,3.03
2018-07-27T20:32:12.452Z,3.40
2018-07-27T20:34:40.717Z,2.90
2018-07-27T20:37:08.935Z,3.20
2018-07-27T20:39:37.132Z,3.50
2018-07-27T20:42:05.503Z,3.23
2018-07-27T20:44:33.740Z,3.50
2018-07-27T20:47:02.110Z,3.40
2018-07-27T20:49:30.336Z,3.50
2018-07-27T20:52:01.068Z,3.30
2018-07-27T20:54:29.704Z,3.90
2018-07-27T20:56:58.111Z,3.53
2018-07-27T20:59:26.403Z,3.23
2018-07-27T21:01:54.556Z,3.17
2018-07-27T21:04:22.789Z,3.60
2018-07-27T21:06:51.181Z,3.53
2018-07-27T21:09:19.376Z,3.20
2018-07-27T21:11:47.584Z,3.57
2018-07-27T21:14:15.824Z,3.13
2018-07-27T21:16:44.003Z,3.00
2018-07-27T21:19:12.199Z,3.43
2018-07-27T21:21:40.480Z,3.50
2018-07-27T21:24:08.807Z,3.20
2018-07-27T21:26:36.774Z,3.33
2018-07-27T21:29:04.982Z,3.40
2018-07-27T21:31:33.160Z,4.30
2018-07-27T21:34:01.358Z,3.80
2018-07-27T21:36:29.569Z,4.00
2018-07-27T21:38:57.711Z,3.80
2018-07-27T21:41:25.882Z,3.00
2018-07-27T21:43:54.172Z,3.73
2018-07-27T21:46:22.111Z,3.60
2018-07-27T21:48:50.304Z,3.37
2018-07-27T21:51:18.979Z,3.73
2018-07-27T21:53:47.183Z,3.50
2018-07-27T21:56:15.216Z,3.33
2018-07-27T21:58:43.391Z,3.83
2018-07-27T22:01:11.632Z,3.70
2018-07-27T22:03:39.804Z,3.20
2018-07-27T22:06:07.979Z,4.23
2018-07-27T22:08:36.188Z,3.60
2018-07-27T22:11:04.380Z,3.90
2018-07-27T22:13:32.641Z,4.13
2018-07-27T22:16:00.803Z,4.00
2018-07-27T22:18:28.988Z,3.50
2018-07-27T22:20:57.184Z,3.83
2018-07-27T22:23:25.122Z,4.40
2018-07-27T22:25:53.282Z,4.50
2018-07-27T22:28:21.464Z,3.97
2018-07-27T22:30:49.642Z,4.83
2018-07-27T22:33:17.819Z,4.90
2018-07-27T22:35:45.987Z,5.00
2018-07-27T22:38:14.211Z,5.57
2018-07-27T22:40:42.420Z,6.23
2018-07-27T22:43:10.556Z,6.87
2018-07-27T22:45:38.736Z,6.20
2018-07-27T22:48:06.904Z,6.40
2018-07-27T22:50:35.083Z,6.13
2018-07-27T22:53:03.280Z,7.07
2018-07-27T22:55:31.462Z,6.80
2018-07-27T22:57:59.643Z,7.33
2018-07-27T23:00:27.823Z,6.60
2018-07-27T23:02:56.032Z,6.50
2018-07-27T23:05:23.983Z,6.67
2018-07-27T23:07:52.260Z,7.47
2018-07-27T23:10:21.532Z,7.30
2018-07-27T23:12:49.707Z,7.30
2018-07-27T23:15:17.907Z,6.43
2018-07-27T23:17:46.087Z,7.60
2018-07-27T23:20:14.718Z,7.20
2018-07-27T23:22:43.672Z,6.30
2018-07-27T23:25:11.610Z,6.90
2018-07-27T23:27:39.793Z,7.77
2018-07-27T23:30:10.233Z,6.00
2018-07-27T23:32:38.171Z,7.00
2018-07-27T23:35:06.378Z,7.23
2018-07-27T23:37:34.475Z,7.37
2018-07-27T23:40:02.732Z,6.90
2018-07-27T23:42:30.667Z,6.80
2018-07-27T23:44:58.872Z,7.47
2018-07-27T23:47:26.803Z,7.63
2018-07-27T23:49:54.960Z,7.80
2018-07-27T23:52:23.151Z,5.93
2018-07-27T23:54:51.388Z,7.30
2018-07-27T23:57:19.737Z,7.13
2018-07-27T23:59:47.714Z,8.43
